createdAt,value
2018-11-10T00:02:04.309Z,102.72
2018-11-10T00:04:32.758Z,106.30
2018-11-10T00:07:01.342Z,123.38
2018-11-10T00:09:29.889Z,114.52
2018-11-10T00:11:59.041Z,123.55
2018-11-10T00:14:27.685Z,118.20
2018-11-10T00:16:55.964Z,131.47
2018-11-10T00:19:24.278Z,119.08
2018-11-10T00:21:52.714Z,132.97
2018-11-10T00:24:21.050Z,136.45
2018-11-10T00:26:49.337Z,124.97
2018-11-10T00:29:17.644Z,134.52
2018-11-10T00:31:45.966Z,125.33
2018-11-10T00:34:14.555Z,126.22
2018-11-10T00:36:43.344Z,124.78
2018-11-10T00:39:11.830Z,120.45
2018-11-10T00:41:41.233Z,125.02
2018-11-10T00:44:09.457Z,133.22
2018-11-10T00:46:37.761Z,122.35
2018-11-10T00:49:06.477Z,119.13
2018-11-10T00:51:34.848Z,111.10
2018-11-10T00:54:03.163Z,112.45
2018-11-10T00:56:31.581Z,106.90
2018-11-10T00:59:00.201Z,115.37
2018-11-10T01:01:28.637Z,111.77
2018-11-10T01:03:56.944Z,115.72
2018-11-10T01:06:26.184Z,105.87
2018-11-10T01:08:54.745Z,103.95
2018-11-10T01:11:23.248Z,89.70
2018-11-10T01:13:51.979Z,101.00
2018-11-10T01:16:20.849Z,106.52
2018-11-10T01:18:50.401Z,102.05
2018-11-10T01:21:18.867Z,106.55
2018-11-10T01:23:47.130Z,103.12
2018-11-10T01:26:15.373Z,99.75
2018-11-10T01:28:43.707Z,97.37
2018-11-10T01:31:12.090Z,107.03
2018-11-10T01:33:40.349Z,102.27
2018-11-10T01:36:08.664Z,103.38
2018-11-10T01:38:36.970Z,97.20
2018-11-10T01:41:05.763Z,97.05
2018-11-10T01:43:34.004Z,87.17
2018-11-10T01:46:02.970Z,99.22
2018-11-10T01:48:31.262Z,104.15
2018-11-10T01:50:59.499Z,103.65
2018-11-10T01:53:27.878Z,92.15
2018-11-10T01:55:56.152Z,100.42
2018-11-10T01:58:24.453Z,109.83
2018-11-10T02:00:52.792Z,114.92
2018-11-10T02:03:21.173Z,110.70
2018-11-10T02:05:49.541Z,100.53
2018-11-10T02:08:17.835Z,103.47
2018-11-10T02:10:46.260Z,106.65
2018-11-10T02:13:14.620Z,92.82
2018-11-10T02:15:42.982Z,91.15
2018-11-10T02:18:11.389Z,95.87
2018-11-10T02:20:39.634Z,91.15
2018-11-10T02:23:08.076Z,89.72
2018-11-10T02:25:36.372Z,98.70
2018-11-10T02:28:04.695Z,95.50
2018-11-10T02:30:32.983Z,107.60
2018-11-10T02:33:01.274Z,96.72
2018-11-10T02:35:29.506Z,99.65
2018-11-10T02:37:57.752Z,92.45
2018-11-10T02:40:26.147Z,102.27
2018-11-10T02:42:54.442Z,100.78
2018-11-10T02:45:22.695Z,100.85
2018-11-10T02:47:50.956Z,100.10
2018-11-10T02:50:19.260Z,97.95
2018-11-10T02:52:47.593Z,97.70
2018-11-10T02:55:15.875Z,100.87
2018-11-10T02:57:44.134Z,95.95
2018-11-10T03:00:13.636Z,83.17
2018-11-10T03:02:41.901Z,87.10
2018-11-10T03:07:47.817Z,91.15
2018-11-10T03:10:17.131Z,86.08
2018-11-10T03:12:47.144Z,94.15
2018-11-10T03:15:17.013Z,77.03
2018-11-10T03:17:46.365Z,83.82
2018-11-10T03:20:18.926Z,86.70
2018-11-10T03:22:47.225Z,80.70
2018-11-10T03:25:15.708Z,75.65
2018-11-10T03:27:47.371Z,88.72
2018-11-10T03:30:17.980Z,78.57
2018-11-10T03:32:47.097Z,80.40
2018-11-10T03:35:17.043Z,84.87
2018-11-10T03:37:45.641Z,88.37
2018-11-10T03:40:16.006Z,82.57
2018-11-10T03:42:44.954Z,89.03
2018-11-10T03:45:17.707Z,79.50
2018-11-10T03:47:47.254Z,74.15
2018-11-10T03:50:17.205Z,72.37
2018-11-10T03:52:47.209Z,76.90
2018-11-10T03:55:17.042Z,81.75
2018-11-10T03:57:46.253Z,69.70
2018-11-10T04:00:15.628Z,70.57
2018-11-10T04:02:45.480Z,76.35
2018-11-10T04:05:15.664Z,66.30
2018-11-10T04:07:46.813Z,62.25
2018-11-10T04:10:18.480Z,64.10
2018-11-10T04:12:47.807Z,66.17
2018-11-10T04:15:16.903Z,68.65
2018-11-10T04:17:45.181Z,60.83
2018-11-10T04:20:16.827Z,60.10
2018-11-10T04:22:46.877Z,60.08
2018-11-10T04:25:17.068Z,62.03
2018-11-10T04:27:46.489Z,64.55
2018-11-10T04:30:16.308Z,57.88
2018-11-10T04:32:46.412Z,62.95
2018-11-10T04:35:14.708Z,56.15
2018-11-10T04:37:45.433Z,51.33
2018-11-10T04:40:17.179Z,55.63
2018-11-10T04:42:45.846Z,59.08
2018-11-10T04:45:16.632Z,51.02
2018-11-10T04:47:48.301Z,51.88
2018-11-10T04:50:17.276Z,57.15
2018-11-10T04:52:46.728Z,51.23
2018-11-10T04:55:18.616Z,54.67
2018-11-10T04:57:46.874Z,67.15
2018-11-10T05:00:17.087Z,54.03
2018-11-10T05:02:46.260Z,48.65
2018-11-10T05:05:16.048Z,44.30
2018-11-10T05:07:44.737Z,51.77
2018-11-10T05:10:17.595Z,54.85
2018-11-10T05:12:47.607Z,57.43
2018-11-10T05:15:16.248Z,45.73
2018-11-10T05:17:46.424Z,52.98
2018-11-10T05:20:15.202Z,48.92
2018-11-10T05:22:43.480Z,49.83
2018-11-10T05:25:16.288Z,51.98
2018-11-10T05:27:46.605Z,53.70
2018-11-10T05:30:16.803Z,51.23
2018-11-10T05:32:46.046Z,51.53
2018-11-10T05:35:19.273Z,48.05
2018-11-10T05:37:47.525Z,51.33
2018-11-10T05:40:16.694Z,50.05
2018-11-10T05:42:45.175Z,56.25
2018-11-10T05:45:16.848Z,46.55
2018-11-10T05:47:48.704Z,47.48
2018-11-10T05:50:17.240Z,52.67
2018-11-10T05:52:49.016Z,51.88
2018-11-10T05:55:17.404Z,52.40
2018-11-10T05:57:47.385Z,54.25
2018-11-10T06:00:16.680Z,49.65
2018-11-10T06:02:48.401Z,59.18
2018-11-10T06:05:17.538Z,49.88
2018-11-10T06:07:47.759Z,43.98
2018-11-10T06:10:16.474Z,51.08
2018-11-10T06:12:46.804Z,48.85
2018-11-10T06:15:18.481Z,49.90
2018-11-10T06:17:47.754Z,50.52
2018-11-10T06:20:17.851Z,51.83
2018-11-10T06:22:48.111Z,45.88
2018-11-10T06:25:27.304Z,50.60
2018-11-10T06:27:57.489Z,48.38
2018-11-10T06:30:27.609Z,57.98
2018-11-10T06:32:57.646Z,53.38
2018-11-10T06:35:27.869Z,55.55
2018-11-10T06:37:58.536Z,48.40
2018-11-10T06:40:27.725Z,52.40
2018-11-10T06:42:57.066Z,52.27
2018-11-10T06:45:28.887Z,56.23
2018-11-10T06:47:57.652Z,59.20
2018-11-10T06:50:27.861Z,54.23
2018-11-10T06:52:58.130Z,57.30
2018-11-10T06:55:28.091Z,51.65
2018-11-10T06:57:58.397Z,54.33
2018-11-10T07:00:27.720Z,59.18
2018-11-10T07:02:58.434Z,51.60
2018-11-10T07:05:27.744Z,51.20
2018-11-10T07:07:58.058Z,56.60
2018-11-10T07:10:28.234Z,59.95
2018-11-10T07:12:58.343Z,51.05
2018-11-10T07:15:27.642Z,54.08
2018-11-10T07:17:58.688Z,57.48
2018-11-10T07:20:28.093Z,57.62
2018-11-10T07:22:58.267Z,55.05
2018-11-10T07:25:28.725Z,55.30
2018-11-10T07:27:58.462Z,49.75
2018-11-10T07:30:27.016Z,51.90
2018-11-10T07:32:56.181Z,47.27
2018-11-10T07:35:27.956Z,57.73
2018-11-10T07:37:57.241Z,51.45
2018-11-10T07:40:45.801Z,50.33
2018-11-10T07:43:16.874Z,48.23
2018-11-10T07:45:49.237Z,49.65
2018-11-10T07:48:17.585Z,50.05
2018-11-10T07:50:49.067Z,43.45
2018-11-10T07:53:17.741Z,44.67
2018-11-10T07:55:47.839Z,46.18
2018-11-10T07:58:17.249Z,44.50
2018-11-10T08:00:47.420Z,45.78
2018-11-10T08:03:15.920Z,43.98
2018-11-10T08:05:44.248Z,43.45
2018-11-10T08:08:12.754Z,42.58
2018-11-10T08:10:41.036Z,41.25
2018-11-10T08:13:09.234Z,43.70
2018-11-10T08:15:37.740Z,42.23
2018-11-10T08:18:06.605Z,34.25
2018-11-10T08:20:35.276Z,41.48
2018-11-10T08:23:03.566Z,39.13
2018-11-10T08:25:31.905Z,32.63
2018-11-10T08:28:01.231Z,38.53
2018-11-10T08:30:29.432Z,40.83
2018-11-10T08:32:58.310Z,36.77
2018-11-10T08:35:26.585Z,35.52
2018-11-10T08:37:55.760Z,35.73
2018-11-10T08:40:25.298Z,37.78
2018-11-10T08:42:53.772Z,30.95
2018-11-10T08:45:22.266Z,31.65
2018-11-10T08:50:26.850Z,37.10
2018-11-10T08:52:58.562Z,32.00
2018-11-10T08:55:27.142Z,29.67
2018-11-10T08:58:00.026Z,30.45
2018-11-10T09:00:28.703Z,30.88
2018-11-10T09:02:58.218Z,33.10
2018-11-10T09:05:28.437Z,28.85
2018-11-10T09:07:59.298Z,30.57
2018-11-10T09:10:29.889Z,30.17
2018-11-10T09:12:58.717Z,26.93
2018-11-10T09:15:29.469Z,28.42
2018-11-10T09:17:58.297Z,30.77
2018-11-10T09:20:28.545Z,28.65
2018-11-10T09:22:58.858Z,30.70
2018-11-10T09:25:29.019Z,31.93
2018-11-10T09:27:57.645Z,21.40
2018-11-10T09:30:28.043Z,27.30
2018-11-10T09:32:58.351Z,26.52
2018-11-10T09:35:30.158Z,25.35
2018-11-10T09:37:59.822Z,20.50
2018-11-10T09:40:28.544Z,22.85
2018-11-10T09:42:59.961Z,23.32
2018-11-10T09:45:28.981Z,22.82
2018-11-10T09:47:58.633Z,24.00
2018-11-10T09:50:29.650Z,25.08
2018-11-10T09:52:58.603Z,26.05
2018-11-10T09:55:28.767Z,26.15
2018-11-10T09:57:59.558Z,21.05
2018-11-10T10:00:28.205Z,22.20
2018-11-10T10:02:58.705Z,22.85
2018-11-10T10:05:28.978Z,27.32
2018-11-10T10:07:58.451Z,25.00
2018-11-10T10:10:28.619Z,25.52
2018-11-10T10:12:59.055Z,22.45
2018-11-10T10:15:37.616Z,23.80
2018-11-10T10:18:09.372Z,21.15
2018-11-10T10:20:38.215Z,23.67
2018-11-10T10:23:07.811Z,17.60
2018-11-10T10:25:37.426Z,19.48
2018-11-10T10:28:09.402Z,20.48
2018-11-10T10:30:37.756Z,21.87
2018-11-10T10:33:07.219Z,23.75
2018-11-10T10:35:45.276Z,19.90
2018-11-10T10:38:18.289Z,18.05
2018-11-10T10:40:50.073Z,20.97
2018-11-10T10:43:18.958Z,20.30
2018-11-10T10:45:53.027Z,18.10
2018-11-10T10:48:27.481Z,19.10
2018-11-10T10:51:00.026Z,21.62
2018-11-10T10:53:29.090Z,15.08
2018-11-10T10:56:08.892Z,18.15
2018-11-10T10:58:39.884Z,15.43
2018-11-10T11:01:13.907Z,17.52
2018-11-10T11:03:47.830Z,14.55
2018-11-10T11:06:17.421Z,15.75
2018-11-10T11:08:47.207Z,16.82
2018-11-10T11:11:15.790Z,16.85
2018-11-10T11:13:44.401Z,15.08
2018-11-10T11:16:13.065Z,16.95
2018-11-10T11:18:41.372Z,19.77
2018-11-10T11:21:09.966Z,14.53
2018-11-10T11:23:40.684Z,17.35
2018-11-10T11:26:09.103Z,15.45
2018-11-10T11:28:37.668Z,14.45
2018-11-10T11:31:06.179Z,16.48
2018-11-10T11:33:34.585Z,16.52
2018-11-10T11:36:02.917Z,17.12
2018-11-10T11:38:31.387Z,13.93
2018-11-10T11:41:00.040Z,15.08
2018-11-10T11:43:28.768Z,13.98
2018-11-10T11:45:57.407Z,12.37
2018-11-10T11:48:30.038Z,14.95
2018-11-10T11:50:58.507Z,16.57
2018-11-10T11:53:27.009Z,13.48
2018-11-10T11:55:55.382Z,12.90
2018-11-10T11:58:24.079Z,12.50
2018-11-10T12:00:52.652Z,13.35
2018-11-10T12:03:21.195Z,16.87
2018-11-10T12:05:50.061Z,11.48
2018-11-10T12:08:18.745Z,16.07
2018-11-10T12:10:47.380Z,17.73
2018-11-10T12:13:16.417Z,15.18
2018-11-10T12:15:45.482Z,13.20
2018-11-10T12:18:14.560Z,15.35
2018-11-10T12:20:43.311Z,13.78
2018-11-10T12:23:11.817Z,13.55
2018-11-10T12:25:43.279Z,13.70
2018-11-10T12:28:13.265Z,11.83
2018-11-10T12:30:41.831Z,12.13
2018-11-10T12:33:10.579Z,11.15
2018-11-10T12:35:39.202Z,14.60
2018-11-10T12:38:07.841Z,13.95
2018-11-10T12:40:36.365Z,12.37
2018-11-10T12:43:06.101Z,12.80
2018-11-10T12:45:35.636Z,14.35
2018-11-10T12:48:05.816Z,13.13
2018-11-10T12:50:36.763Z,15.45
2018-11-10T12:53:05.565Z,11.10
2018-11-10T12:55:35.092Z,14.68
2018-11-10T12:58:04.425Z,13.98
2018-11-10T13:00:33.008Z,12.20
2018-11-10T13:03:02.447Z,12.73
2018-11-10T13:05:31.175Z,13.43
2018-11-10T13:07:59.887Z,13.20
2018-11-10T13:10:28.993Z,14.07
2018-11-10T13:12:57.565Z,11.63
2018-11-10T13:15:27.583Z,12.25
2018-11-10T13:17:57.507Z,12.33
2018-11-10T13:20:26.294Z,13.78
2018-11-10T13:22:55.087Z,18.90
2018-11-10T13:25:23.891Z,13.22
2018-11-10T13:27:52.416Z,14.03
2018-11-10T13:30:21.990Z,11.65
2018-11-10T13:32:51.379Z,12.13
2018-11-10T13:35:20.549Z,11.25
2018-11-10T13:37:54.270Z,12.68
2018-11-10T13:40:26.662Z,11.75
2018-11-10T13:42:55.375Z,12.10
2018-11-10T13:45:26.525Z,12.23
2018-11-10T13:47:55.016Z,11.95
2018-11-10T13:50:25.778Z,16.25
2018-11-10T13:52:55.316Z,14.60
2018-11-10T13:55:25.434Z,12.60
2018-11-10T13:57:55.298Z,12.90
2018-11-10T14:03:06.399Z,16.30
2018-11-10T14:05:36.849Z,15.35
2018-11-10T14:08:06.884Z,14.33
2018-11-10T14:10:36.289Z,16.85
2018-11-10T14:13:05.840Z,13.22
2018-11-10T14:15:35.350Z,13.55
2018-11-10T14:18:05.030Z,14.15
2018-11-10T14:20:35.447Z,13.58
2018-11-10T14:23:05.014Z,13.30
2018-11-10T14:25:35.737Z,13.78
2018-11-10T14:28:05.028Z,14.13
2018-11-10T14:35:54.998Z,15.25
2018-11-10T14:38:25.285Z,15.38
2018-11-10T14:40:55.983Z,19.30
2018-11-10T14:43:25.116Z,14.55
2018-11-10T14:45:57.249Z,17.80
2018-11-10T14:48:26.342Z,16.50
2018-11-10T14:50:56.768Z,16.35
2018-11-10T14:53:26.512Z,15.65
2018-11-10T14:55:55.733Z,19.75
2018-11-10T14:58:26.810Z,16.62
2018-11-10T15:00:57.379Z,17.70
2018-11-10T15:03:32.535Z,14.13
2018-11-10T15:06:06.136Z,12.30
2018-11-10T15:08:34.942Z,17.05
2018-11-10T15:11:16.079Z,16.90
2018-11-10T15:13:45.418Z,14.53
2018-11-10T15:16:14.970Z,16.87
2018-11-10T15:18:47.014Z,20.77
2018-11-10T15:21:21.727Z,17.92
2018-11-10T15:23:55.475Z,19.15
2018-11-10T15:26:24.844Z,20.55
2018-11-10T15:28:55.220Z,21.93
2018-11-10T15:31:25.353Z,21.33
2018-11-10T15:33:55.084Z,20.80
2018-11-10T15:36:25.739Z,24.20
2018-11-10T15:38:55.676Z,23.12
2018-11-10T15:41:27.191Z,22.37
2018-11-10T15:43:55.892Z,26.15
2018-11-10T15:49:06.276Z,25.52
2018-11-10T15:51:35.089Z,22.80
2018-11-10T15:54:05.369Z,23.10
2018-11-10T15:56:35.003Z,27.37
2018-11-10T15:59:05.272Z,30.48
2018-11-10T16:01:35.717Z,23.50
2018-11-10T16:04:04.801Z,26.12
2018-11-10T16:06:34.366Z,28.67
2018-11-10T16:09:03.813Z,25.25
2018-11-10T16:11:34.805Z,27.87
2018-11-10T16:14:04.876Z,28.42
2018-11-10T16:16:34.872Z,24.20
2018-11-10T16:19:04.352Z,28.98
2018-11-10T16:21:34.463Z,27.50
2018-11-10T16:24:04.901Z,27.42
2018-11-10T16:26:35.020Z,27.17
2018-11-10T16:29:05.403Z,29.48
2018-11-10T16:31:35.309Z,26.65
2018-11-10T16:34:05.376Z,27.00
2018-11-10T16:36:34.174Z,27.07
2018-11-10T16:39:14.685Z,32.38
2018-11-10T16:41:44.315Z,29.30
2018-11-10T16:46:55.383Z,31.52
2018-11-10T16:49:25.851Z,34.90
2018-11-10T16:51:54.656Z,36.35
2018-11-10T16:54:25.302Z,32.15
2018-11-10T16:56:53.958Z,31.50
2018-11-10T16:59:22.882Z,32.45
2018-11-10T17:01:51.398Z,28.02
2018-11-10T17:04:19.914Z,33.02
2018-11-10T17:06:49.480Z,32.80
2018-11-10T17:09:18.017Z,33.08
2018-11-10T17:11:46.591Z,31.95
2018-11-10T17:14:15.115Z,30.62
2018-11-10T17:16:44.229Z,33.98
2018-11-10T17:19:12.641Z,31.73
2018-11-10T17:21:40.988Z,35.23
2018-11-10T17:24:09.385Z,32.30
2018-11-10T17:26:37.763Z,30.70
2018-11-10T17:29:06.300Z,31.15
2018-11-10T17:34:20.242Z,27.30
2018-11-10T17:36:48.625Z,35.40
2018-11-10T17:39:17.466Z,32.98
2018-11-10T17:41:45.805Z,33.35
2018-11-10T17:44:14.262Z,34.80
2018-11-10T17:46:42.774Z,36.10
2018-11-10T17:49:11.634Z,31.65
2018-11-10T17:51:40.761Z,37.50
2018-11-10T17:54:09.419Z,41.42
2018-11-10T17:56:37.938Z,34.13
2018-11-10T17:59:07.345Z,31.57
2018-11-10T18:01:35.976Z,32.90
2018-11-10T18:04:05.017Z,34.45
2018-11-10T18:06:33.549Z,31.25
2018-11-10T18:09:02.158Z,36.08
2018-11-10T18:11:32.426Z,34.48
2018-11-10T18:14:01.063Z,34.65
2018-11-10T18:16:29.932Z,29.90
2018-11-10T18:18:58.801Z,29.90
2018-11-10T18:21:27.961Z,34.38
2018-11-10T18:23:56.676Z,33.70
2018-11-10T18:26:25.887Z,35.08
2018-11-10T18:28:54.337Z,33.78
2018-11-10T18:31:22.906Z,39.03
2018-11-10T18:33:51.529Z,33.73
2018-11-10T18:36:20.322Z,34.65
2018-11-10T18:38:48.731Z,35.23
2018-11-10T18:41:17.384Z,33.30
2018-11-10T18:43:46.174Z,32.67
2018-11-10T18:46:20.324Z,28.83
2018-11-10T18:48:49.166Z,35.85
2018-11-10T18:51:18.426Z,36.13
2018-11-10T18:53:47.175Z,33.55
2018-11-10T18:56:18.806Z,35.33
2018-11-10T18:58:48.210Z,33.73
2018-11-10T19:01:17.130Z,33.20
2018-11-10T19:03:46.336Z,37.33
2018-11-10T19:06:16.202Z,36.48
2018-11-10T19:08:45.002Z,34.38
2018-11-10T19:11:14.351Z,35.73
2018-11-10T19:13:44.096Z,34.50
2018-11-10T19:16:15.437Z,32.00
2018-11-10T19:18:44.244Z,37.48
2018-11-10T19:21:14.130Z,33.45
2018-11-10T19:23:44.268Z,35.68
2018-11-10T19:26:13.156Z,35.78
2018-11-10T19:28:41.931Z,35.73
2018-11-10T19:31:12.094Z,35.23
2018-11-10T19:33:40.737Z,33.78
2018-11-10T19:36:13.978Z,30.02
2018-11-10T19:38:49.550Z,30.32
2018-11-10T19:41:28.268Z,30.50
2018-11-10T19:44:16.609Z,32.25
2018-11-10T19:54:14.804Z,29.40
2018-11-10T19:56:43.906Z,28.30
2018-11-10T20:02:03.429Z,33.80
2018-11-10T20:04:38.143Z,30.32
2018-11-10T20:07:09.728Z,28.73
2018-11-10T20:09:42.668Z,29.23
2018-11-10T20:12:17.117Z,31.23
2018-11-10T20:14:45.521Z,29.37
2018-11-10T20:23:54.189Z,26.48
2018-11-10T20:26:43.591Z,25.20
2018-11-10T20:29:13.152Z,30.20
2018-11-10T20:31:41.574Z,32.60
2018-11-10T20:34:09.786Z,25.80
2018-11-10T20:36:39.310Z,21.68
2018-11-10T20:39:08.762Z,28.02
2018-11-10T20:41:37.558Z,26.15
2018-11-10T20:44:06.819Z,23.50
2018-11-10T20:46:35.386Z,40.80
2018-11-10T20:49:04.757Z,28.40
2018-11-10T20:51:34.557Z,23.87
2018-11-10T20:54:03.897Z,23.22
2018-11-10T20:56:35.709Z,20.25
2018-11-10T20:59:08.401Z,23.47
2018-11-10T21:01:37.109Z,20.43
2018-11-10T21:04:11.295Z,21.15
2018-11-10T21:06:43.616Z,17.90
2018-11-10T21:09:13.009Z,21.85
2018-11-10T21:11:42.078Z,21.45
2018-11-10T21:14:11.104Z,21.07
2018-11-10T21:16:39.486Z,20.72
2018-11-10T21:19:08.348Z,23.38
2018-11-10T21:21:37.321Z,20.77
2018-11-10T21:24:07.052Z,24.95
2018-11-10T21:26:36.401Z,19.02
2018-11-10T21:29:05.853Z,19.07
2018-11-10T21:31:34.361Z,23.90
2018-11-10T21:34:05.166Z,21.33
2018-11-10T21:36:34.218Z,18.82
2018-11-10T21:39:03.220Z,19.70
2018-11-10T21:41:32.258Z,21.12
2018-11-10T21:44:01.505Z,17.82
2018-11-10T21:46:30.737Z,19.15
2018-11-10T21:48:59.665Z,17.90
2018-11-10T21:51:29.407Z,19.17
2018-11-10T21:53:58.678Z,16.23
2018-11-10T21:56:27.350Z,17.27
2018-11-10T21:58:57.199Z,18.35
2018-11-10T22:01:26.962Z,17.00
2018-11-10T22:03:55.900Z,16.35
2018-11-10T22:06:24.757Z,18.90
2018-11-10T22:08:53.831Z,21.02
2018-11-10T22:11:22.829Z,17.15
2018-11-10T22:13:51.759Z,19.00
2018-11-10T22:16:20.247Z,21.37
2018-11-10T22:18:48.751Z,18.02
2018-11-10T22:21:17.530Z,15.23
2018-11-10T22:23:46.506Z,18.05
2018-11-10T22:26:15.319Z,18.50
2018-11-10T22:28:43.771Z,15.25
2018-11-10T22:31:12.591Z,16.37
2018-11-10T22:33:41.008Z,17.70
2018-11-10T22:36:09.533Z,16.52
2018-11-10T22:38:38.501Z,16.25
2018-11-10T22:41:09.788Z,15.35
2018-11-10T22:43:39.997Z,18.42
2018-11-10T22:46:08.853Z,18.85
2018-11-10T22:48:38.257Z,18.40
2018-11-10T22:51:08.155Z,19.70
2018-11-10T22:53:45.349Z,17.65
2018-11-10T22:56:14.893Z,15.63
2018-11-10T22:58:44.090Z,17.45
2018-11-10T23:01:16.685Z,13.22
2018-11-10T23:03:45.672Z,13.78
2018-11-10T23:06:16.895Z,15.35
2018-11-10T23:08:45.756Z,17.55
2018-11-10T23:11:18.999Z,26.15
2018-11-10T23:13:48.419Z,22.95
2018-11-10T23:16:16.926Z,18.60
2018-11-10T23:18:45.667Z,30.50
2018-11-10T23:21:14.939Z,17.10
2018-11-10T23:23:43.971Z,15.83
2018-11-10T23:26:13.764Z,13.98
2018-11-10T23:28:42.274Z,13.48
2018-11-10T23:31:10.824Z,14.20
2018-11-10T23:33:39.626Z,12.55
2018-11-10T23:36:08.887Z,14.93
2018-11-10T23:38:37.369Z,16.40
2018-11-10T23:41:06.023Z,10.93
2018-11-10T23:43:35.165Z,18.55
2018-11-10T23:46:04.641Z,12.43
2018-11-10T23:48:32.929Z,11.03
2018-11-10T23:51:01.663Z,15.72
2018-11-10T23:56:12.902Z,14.93
2018-11-10T23:58:43.330Z,16.02
